createdAt,value
2023-02-28T00:01:09.989Z,6.20
2023-02-28T00:03:36.709Z,6.22
2023-02-28T00:06:07.869Z,5.55
2023-02-28T00:08:34.640Z,4.90
2023-02-28T00:11:05.809Z,5.18
2023-02-28T00:13:34.394Z,9.05
2023-02-28T00:16:06.786Z,4.05
2023-02-28T00:18:33.913Z,3.55
2023-02-28T00:21:00.919Z,4.97
2023-02-28T00:23:28.694Z,5.82
2023-02-28T00:25:55.662Z,4.88
2023-02-28T00:28:22.984Z,6.80
2023-02-28T00:30:49.786Z,6.40
2023-02-28T00:33:16.794Z,5.50
2023-02-28T00:35:43.576Z,9.57
2023-02-28T00:38:10.780Z,6.60
2023-02-28T00:40:37.513Z,4.40
2023-02-28T00:43:05.152Z,5.28
2023-02-28T00:45:32.074Z,9.85
2023-02-28T00:47:58.924Z,5.40
2023-02-28T00:50:25.792Z,7.63
2023-02-28T00:52:52.483Z,4.95
2023-02-28T00:55:20.764Z,6.95
2023-02-28T00:57:48.660Z,5.65
2023-02-28T01:00:15.790Z,3.88
2023-02-28T01:02:43.332Z,3.97
2023-02-28T01:05:12.849Z,6.00
2023-02-28T01:07:39.584Z,5.30
2023-02-28T01:10:06.680Z,7.78
2023-02-28T01:12:33.576Z,4.32
2023-02-28T01:15:00.294Z,5.20
2023-02-28T01:17:27.420Z,5.57
2023-02-28T01:19:56.592Z,6.88
2023-02-28T01:22:25.580Z,4.95
2023-02-28T01:24:52.349Z,3.92
2023-02-28T01:27:19.082Z,6.10
2023-02-28T01:29:45.989Z,6.60
2023-02-28T01:32:12.744Z,11.90
2023-02-28T01:34:39.566Z,6.65
2023-02-28T01:37:06.359Z,7.75
2023-02-28T01:39:34.641Z,4.90
2023-02-28T01:42:11.441Z,9.02
2023-02-28T01:45:00.147Z,6.25
2023-02-28T01:47:40.937Z,6.20
2023-02-28T01:50:15.195Z,5.45
2023-02-28T01:52:45.040Z,5.07
2023-02-28T01:55:12.879Z,4.30
2023-02-28T01:57:46.769Z,5.80
2023-02-28T02:00:18.976Z,4.97
2023-02-28T02:02:54.515Z,4.53
2023-02-28T02:07:54.550Z,5.57
2023-02-28T02:10:28.077Z,8.97
2023-02-28T02:13:38.872Z,5.70
2023-02-28T02:16:37.208Z,5.50
2023-02-28T02:19:18.978Z,6.38
2023-02-28T02:22:19.074Z,6.07
2023-02-28T02:24:51.684Z,6.18
2023-02-28T02:27:45.189Z,9.43
2023-02-28T02:30:40.345Z,11.70
2023-02-28T02:33:24.914Z,5.45
2023-02-28T02:35:57.659Z,5.60
2023-02-28T02:38:53.125Z,5.68
2023-02-28T02:41:33.840Z,6.50
2023-02-28T02:44:18.449Z,5.22
2023-02-28T02:46:47.108Z,3.70
2023-02-28T02:49:25.178Z,9.23
2023-02-28T02:51:54.578Z,4.43
2023-02-28T02:54:29.494Z,6.80
2023-02-28T02:57:00.116Z,7.13
2023-02-28T02:59:29.263Z,6.00
2023-02-28T03:02:01.450Z,8.55
2023-02-28T03:04:33.259Z,8.38
2023-02-28T03:07:03.222Z,5.22
2023-02-28T03:09:31.974Z,7.30
2023-02-28T03:11:58.751Z,6.90
2023-02-28T03:14:28.492Z,6.47
2023-02-28T03:17:00.824Z,4.88
2023-02-28T03:19:38.403Z,4.78
2023-02-28T03:22:36.632Z,6.20
2023-02-28T03:25:13.465Z,8.18
2023-02-28T03:27:49.033Z,8.18
2023-02-28T03:30:26.414Z,5.85
2023-02-28T03:33:05.665Z,5.85
2023-02-28T03:35:37.333Z,7.22
2023-02-28T03:38:19.536Z,8.05
2023-02-28T03:40:56.020Z,4.32
2023-02-28T03:43:33.522Z,5.72
2023-02-28T03:46:03.676Z,8.43
2023-02-28T03:48:59.474Z,5.72
2023-02-28T03:51:29.154Z,7.63
2023-02-28T03:54:00.966Z,4.65
2023-02-28T03:57:17.405Z,9.85
2023-02-28T03:59:58.716Z,5.53
2023-02-28T04:02:26.262Z,5.82
2023-02-28T04:04:55.277Z,8.20
2023-02-28T04:07:22.202Z,8.07
2023-02-28T04:09:48.888Z,8.13
2023-02-28T04:12:15.584Z,6.22
2023-02-28T04:14:42.286Z,6.00
2023-02-28T04:17:09.292Z,4.32
2023-02-28T04:19:36.187Z,5.20
2023-02-28T04:22:02.959Z,6.40
2023-02-28T04:24:30.416Z,4.25
2023-02-28T04:26:59.131Z,5.00
2023-02-28T04:29:28.905Z,5.45
2023-02-28T04:31:59.005Z,4.15
2023-02-28T04:34:27.269Z,6.30
2023-02-28T04:37:11.959Z,3.20
2023-02-28T04:39:45.732Z,3.38
2023-02-28T04:42:13.534Z,4.03
2023-02-28T04:44:40.358Z,4.72
2023-02-28T04:47:10.849Z,3.35
2023-02-28T04:49:38.142Z,8.43
2023-02-28T04:52:05.608Z,7.60
2023-02-28T04:54:32.296Z,7.93
2023-02-28T04:57:02.898Z,4.72
2023-02-28T04:59:29.794Z,4.90
2023-02-28T05:01:59.620Z,4.60
2023-02-28T05:04:26.470Z,3.40
2023-02-28T05:06:53.197Z,2.95
2023-02-28T05:09:19.926Z,4.50
2023-02-28T05:11:47.661Z,2.75
2023-02-28T05:14:15.572Z,4.40
2023-02-28T05:16:45.110Z,4.80
2023-02-28T05:19:11.910Z,4.45
2023-02-28T05:21:50.232Z,9.00
2023-02-28T05:24:23.482Z,2.30
2023-02-28T05:26:53.292Z,4.55
2023-02-28T05:29:20.259Z,2.20
2023-02-28T05:31:49.981Z,3.58
2023-02-28T05:34:17.065Z,3.92
2023-02-28T05:36:44.057Z,3.20
2023-02-28T05:39:14.051Z,3.33
2023-02-28T05:41:44.567Z,4.07
2023-02-28T05:44:13.234Z,4.38
2023-02-28T05:46:39.978Z,3.10
2023-02-28T05:49:08.344Z,7.38
2023-02-28T05:51:37.270Z,5.90
2023-02-28T05:54:04.434Z,5.30
2023-02-28T05:56:31.282Z,4.15
2023-02-28T05:58:58.147Z,5.70
2023-02-28T06:01:42.099Z,2.63
2023-02-28T06:04:22.301Z,7.72
2023-02-28T06:06:53.074Z,5.07
2023-02-28T06:09:20.179Z,4.63
2023-02-28T06:11:47.417Z,11.10
2023-02-28T06:14:17.615Z,4.90
2023-02-28T06:16:44.998Z,3.72
2023-02-28T06:19:11.961Z,2.30
2023-02-28T06:21:38.644Z,3.58
2023-02-28T06:24:08.163Z,9.88
2023-02-28T06:26:37.841Z,3.22
2023-02-28T06:29:04.510Z,9.48
2023-02-28T06:31:41.557Z,5.43
2023-02-28T06:34:08.325Z,6.25
2023-02-28T06:36:35.076Z,4.47
2023-02-28T06:39:02.062Z,5.82
2023-02-28T06:41:51.684Z,5.35
2023-02-28T06:44:20.870Z,4.55
2023-02-28T06:46:48.214Z,4.40
2023-02-28T06:49:15.386Z,7.30
2023-02-28T06:51:46.040Z,3.55
2023-02-28T06:54:13.698Z,8.77
2023-02-28T06:56:40.979Z,4.50
2023-02-28T06:59:07.854Z,2.95
2023-02-28T07:01:39.898Z,3.22
2023-02-28T07:04:14.178Z,6.95
2023-02-28T07:06:41.079Z,6.40
2023-02-28T07:09:08.314Z,4.43
2023-02-28T07:11:40.348Z,4.90
2023-02-28T07:14:29.866Z,7.30
2023-02-28T07:17:02.978Z,9.95
2023-02-28T07:24:17.446Z,5.25
2023-02-28T07:26:53.466Z,3.70
2023-02-28T07:35:13.580Z,5.90
2023-02-28T07:38:18.254Z,4.57
2023-02-28T07:57:27.459Z,8.73
2023-02-28T08:00:30.250Z,4.53
2023-02-28T08:03:00.617Z,6.13
2023-02-28T08:05:28.559Z,4.07
2023-02-28T08:07:56.223Z,6.00
2023-02-28T08:10:23.245Z,10.38
2023-02-28T08:12:50.020Z,6.53
2023-02-28T08:15:16.880Z,5.05
2023-02-28T08:17:43.742Z,7.05
2023-02-28T08:20:12.014Z,6.28
2023-02-28T08:22:38.964Z,6.75
2023-02-28T08:25:08.328Z,5.80
2023-02-28T08:28:35.849Z,4.65
2023-02-28T08:37:53.630Z,5.43
2023-02-28T08:47:56.826Z,5.00
2023-02-28T08:50:23.828Z,5.85
2023-02-28T08:52:50.672Z,5.65
2023-02-28T08:55:17.630Z,4.65
2023-02-28T08:57:47.910Z,4.95
2023-02-28T09:00:15.353Z,9.20
2023-02-28T09:02:44.711Z,5.43
2023-02-28T09:05:11.576Z,3.20
2023-02-28T09:07:40.812Z,2.72
2023-02-28T09:10:08.007Z,5.20
2023-02-28T09:12:36.720Z,2.92
2023-02-28T09:15:04.536Z,4.72
2023-02-28T09:17:31.522Z,6.65
2023-02-28T09:19:58.463Z,3.78
2023-02-28T09:22:25.584Z,4.28
2023-02-28T09:24:52.289Z,1.80
2023-02-28T09:27:19.016Z,2.05
2023-02-28T09:29:45.805Z,1.85
2023-02-28T09:32:14.742Z,2.30
2023-02-28T09:34:41.989Z,2.25
2023-02-28T09:37:08.832Z,1.50
2023-02-28T09:39:35.839Z,1.60
2023-02-28T09:42:04.153Z,1.77
2023-02-28T09:44:40.261Z,3.67
2023-02-28T09:47:25.758Z,4.00
2023-02-28T09:49:58.223Z,1.75
2023-02-28T09:52:39.774Z,2.35
2023-02-28T09:55:46.944Z,1.73
2023-02-28T09:58:38.233Z,2.33
2023-02-28T10:01:13.496Z,1.02
2023-02-28T10:03:47.990Z,1.40
2023-02-28T10:06:24.057Z,1.10
2023-02-28T10:09:02.485Z,1.40
2023-02-28T10:11:33.294Z,1.88
2023-02-28T10:14:25.164Z,2.13
2023-02-28T10:17:06.281Z,2.88
2023-02-28T10:19:44.584Z,2.10
2023-02-28T10:22:28.557Z,3.50
2023-02-28T10:25:02.171Z,1.20
2023-02-28T10:27:33.638Z,2.47
2023-02-28T10:30:29.486Z,2.55
2023-02-28T10:35:45.129Z,2.45
2023-02-28T10:38:20.383Z,3.22
2023-02-28T10:48:27.826Z,1.45
2023-02-28T10:54:03.635Z,1.77
2023-02-28T10:56:32.102Z,2.65
2023-02-28T10:59:58.065Z,1.35
2023-02-28T11:05:37.834Z,3.28
2023-02-28T11:11:07.134Z,1.67
2023-02-28T11:13:36.721Z,3.33
2023-02-28T11:16:06.966Z,1.48
2023-02-28T11:18:43.079Z,1.65
2023-02-28T11:21:19.301Z,2.05
2023-02-28T11:23:49.945Z,2.13
2023-02-28T11:37:53.983Z,1.75
2023-02-28T11:41:24.684Z,2.00
2023-02-28T11:44:16.085Z,1.27
2023-02-28T11:51:09.203Z,1.92
2023-02-28T11:53:44.660Z,2.05
2023-02-28T11:56:31.207Z,1.63
2023-02-28T11:59:08.223Z,2.50
2023-02-28T12:01:54.245Z,5.25
2023-02-28T12:04:58.286Z,1.77
2023-02-28T12:07:33.694Z,1.55
2023-02-28T12:10:32.804Z,1.20
2023-02-28T12:13:22.751Z,1.25
2023-02-28T12:15:59.829Z,2.85
2023-02-28T12:18:45.457Z,4.40
2023-02-28T12:21:27.112Z,1.45
2023-02-28T12:24:02.863Z,1.67
2023-02-28T12:26:42.294Z,1.90
2023-02-28T12:29:29.061Z,2.35
2023-02-28T12:44:59.386Z,3.72
2023-02-28T12:47:26.353Z,3.88
2023-02-28T12:50:12.313Z,2.17
2023-02-28T12:52:56.088Z,2.70
2023-02-28T12:55:52.514Z,2.30
2023-02-28T12:58:41.114Z,1.50
2023-02-28T13:01:29.191Z,3.47
2023-02-28T13:04:40.126Z,1.42
2023-02-28T13:29:13.145Z,1.80
2023-02-28T13:43:51.572Z,1.42
2023-02-28T13:47:47.930Z,1.55
2023-02-28T13:53:37.546Z,1.45
2023-02-28T14:04:22.755Z,2.58
2023-02-28T14:06:58.014Z,2.83
2023-02-28T14:09:32.331Z,1.60
2023-02-28T14:15:20.705Z,2.60
2023-02-28T14:17:54.762Z,1.95
2023-02-28T14:20:29.394Z,2.10
2023-02-28T14:23:15.520Z,2.40
2023-02-28T14:26:08.496Z,3.10
2023-02-28T14:28:53.777Z,4.47
2023-02-28T14:31:28.420Z,2.28
2023-02-28T14:34:01.134Z,2.92
2023-02-28T14:36:40.334Z,1.45
2023-02-28T14:39:31.735Z,4.53
2023-02-28T14:42:05.952Z,4.00
2023-02-28T14:44:33.275Z,4.30
2023-02-28T14:47:07.311Z,2.50
2023-02-28T14:49:38.621Z,1.30
2023-02-28T14:52:18.150Z,1.63
2023-02-28T14:54:45.824Z,4.05
2023-02-28T14:57:27.664Z,1.92
2023-02-28T15:00:15.816Z,2.42
2023-02-28T15:02:44.384Z,3.85
2023-02-28T15:05:11.057Z,2.33
2023-02-28T15:07:38.343Z,1.40
2023-02-28T15:10:27.350Z,2.33
2023-02-28T15:12:59.173Z,5.90
2023-02-28T15:16:02.084Z,1.92
2023-02-28T15:18:32.932Z,1.77
2023-02-28T15:21:13.961Z,2.33
2023-02-28T15:23:43.086Z,2.17
2023-02-28T15:26:23.211Z,1.70
2023-02-28T15:28:55.825Z,1.70
2023-02-28T15:31:33.530Z,1.77
2023-02-28T15:34:07.477Z,2.78
2023-02-28T15:36:38.159Z,1.30
2023-02-28T15:39:22.774Z,2.30
2023-02-28T15:41:49.989Z,2.55
2023-02-28T15:44:30.511Z,3.00
2023-02-28T15:47:00.562Z,1.90
2023-02-28T15:49:27.733Z,2.10
2023-02-28T15:51:58.394Z,2.88
2023-02-28T15:54:30.383Z,2.35
2023-02-28T15:56:59.115Z,2.35
2023-02-28T15:59:29.115Z,5.10
2023-02-28T16:02:16.769Z,2.45
2023-02-28T16:05:07.146Z,4.65
2023-02-28T16:07:35.470Z,1.50
2023-02-28T16:10:02.308Z,2.75
2023-02-28T16:12:34.531Z,2.33
2023-02-28T16:15:09.483Z,2.47
2023-02-28T16:17:39.618Z,2.92
2023-02-28T16:20:25.222Z,3.25
2023-02-28T16:22:52.392Z,1.42
2023-02-28T16:25:21.903Z,1.70
2023-02-28T16:27:51.752Z,1.88
2023-02-28T16:30:24.659Z,2.60
2023-02-28T16:32:52.747Z,1.10
2023-02-28T16:35:20.409Z,4.28
2023-02-28T16:37:47.405Z,1.92
2023-02-28T16:40:26.577Z,3.05
2023-02-28T16:43:00.893Z,3.00
2023-02-28T16:45:29.881Z,3.30
2023-02-28T16:47:57.657Z,2.42
2023-02-28T16:50:30.704Z,4.88
2023-02-28T16:53:03.837Z,4.50
2023-02-28T16:55:37.850Z,4.05
2023-02-28T16:58:05.281Z,2.60
2023-02-28T17:00:33.604Z,5.40
2023-02-28T17:03:00.685Z,5.88
2023-02-28T17:05:30.180Z,5.95
2023-02-28T17:07:56.894Z,9.80
2023-02-28T17:10:29.348Z,11.60
2023-02-28T17:13:03.396Z,8.05
2023-02-28T17:15:37.417Z,3.33
2023-02-28T17:18:06.049Z,10.68
2023-02-28T17:20:35.704Z,6.13
2023-02-28T17:23:02.805Z,5.32
2023-02-28T17:25:29.719Z,4.25
2023-02-28T17:27:57.220Z,8.75
2023-02-28T17:33:44.920Z,6.47
2023-02-28T17:36:50.939Z,9.88
2023-02-28T17:39:50.194Z,6.60
2023-02-28T17:42:16.845Z,5.38
2023-02-28T17:44:46.354Z,5.68
2023-02-28T17:47:13.777Z,6.38
2023-02-28T17:49:40.650Z,3.80
2023-02-28T17:52:19.746Z,3.60
2023-02-28T17:54:47.495Z,5.20
2023-02-28T17:57:17.103Z,5.43
2023-02-28T17:59:46.411Z,5.75
2023-02-28T18:06:51.005Z,5.40
2023-02-28T18:16:22.010Z,2.55
2023-02-28T18:19:17.691Z,5.32
2023-02-28T18:30:15.223Z,5.88
2023-02-28T18:47:57.296Z,3.55
2023-02-28T18:57:36.138Z,5.85
2023-02-28T19:00:03.582Z,4.22
2023-02-28T19:05:34.755Z,4.40
2023-02-28T19:16:16.453Z,5.82
2023-02-28T19:33:56.749Z,4.28
2023-02-28T19:37:19.551Z,9.23
2023-02-28T19:39:46.581Z,4.55
2023-02-28T19:42:17.772Z,4.28
2023-02-28T19:44:45.224Z,7.25
2023-02-28T19:47:12.763Z,6.03
2023-02-28T19:49:39.623Z,5.18
2023-02-28T19:52:09.089Z,9.05
2023-02-28T19:54:37.401Z,6.53
2023-02-28T19:57:04.455Z,7.60
2023-02-28T19:59:39.037Z,6.07
2023-02-28T20:02:15.939Z,5.38
2023-02-28T20:04:54.322Z,8.02
2023-02-28T20:07:30.174Z,9.32
2023-02-28T20:09:58.484Z,6.45
2023-02-28T20:12:32.926Z,6.07
2023-02-28T20:14:59.915Z,5.30
2023-02-28T20:17:28.291Z,4.88
2023-02-28T20:19:54.944Z,9.27
2023-02-28T20:22:21.666Z,7.20
2023-02-28T20:24:48.633Z,5.57
2023-02-28T20:27:15.678Z,7.50
2023-02-28T20:29:42.394Z,7.30
2023-02-28T20:32:09.292Z,10.48
2023-02-28T20:34:41.907Z,7.38
2023-02-28T20:37:08.951Z,8.50
2023-02-28T20:39:35.639Z,21.10
2023-02-28T20:42:02.671Z,37.53
2023-02-28T20:44:32.481Z,38.63
2023-02-28T20:46:59.278Z,28.33
2023-02-28T20:49:26.159Z,31.25
2023-02-28T20:51:54.259Z,28.67
2023-02-28T20:54:21.551Z,25.10
2023-02-28T20:56:48.417Z,27.17
2023-02-28T20:59:15.301Z,22.85
2023-02-28T21:01:48.010Z,20.95
2023-02-28T21:06:43.690Z,28.00
2023-02-28T21:09:12.446Z,23.90
2023-02-28T21:11:39.877Z,21.23
2023-02-28T21:14:09.681Z,18.20
2023-02-28T21:16:37.887Z,15.43
2023-02-28T21:19:05.208Z,18.80
2023-02-28T21:21:34.920Z,17.15
2023-02-28T21:24:01.979Z,14.55
2023-02-28T21:26:30.022Z,16.48
2023-02-28T21:28:59.619Z,17.20
2023-02-28T21:31:28.863Z,17.70
2023-02-28T21:33:57.362Z,20.90
2023-02-28T21:36:29.798Z,16.95
2023-02-28T21:38:59.026Z,20.40
2023-02-28T21:41:26.556Z,19.95
2023-02-28T21:43:53.411Z,18.95
2023-02-28T21:46:23.852Z,17.48
2023-02-28T21:48:51.417Z,12.88
2023-02-28T21:51:26.050Z,8.82
2023-02-28T21:53:53.549Z,8.57
2023-02-28T21:56:34.188Z,5.15
2023-02-28T21:59:02.006Z,9.18
2023-02-28T22:01:37.348Z,7.53
2023-02-28T22:06:35.694Z,7.60
2023-02-28T22:09:10.962Z,7.57
2023-02-28T22:11:38.970Z,9.05
2023-02-28T22:14:06.909Z,9.38
2023-02-28T22:16:50.131Z,7.53
2023-02-28T22:19:19.431Z,7.05
2023-02-28T22:21:47.270Z,6.68
2023-02-28T22:24:14.601Z,11.52
2023-02-28T22:26:41.365Z,5.88
2023-02-28T22:29:08.073Z,8.07
2023-02-28T22:31:36.304Z,10.77
2023-02-28T22:34:06.104Z,12.13
2023-02-28T22:36:33.183Z,9.90
2023-02-28T22:39:02.973Z,10.50
2023-02-28T22:41:33.206Z,9.02
2023-02-28T22:44:06.372Z,10.05
2023-02-28T22:46:34.451Z,11.13
2023-02-28T22:49:05.789Z,27.60
2023-02-28T22:51:33.046Z,28.05
2023-02-28T22:53:59.771Z,37.17
2023-02-28T22:56:29.178Z,40.80
2023-02-28T22:58:57.939Z,21.27
2023-02-28T23:01:31.020Z,26.83
2023-02-28T23:03:58.384Z,26.88
2023-02-28T23:06:29.955Z,21.58
2023-02-28T23:09:05.707Z,30.52
2023-02-28T23:14:00.865Z,21.08
2023-02-28T23:16:59.712Z,16.58
2023-02-28T23:19:31.973Z,14.52
2023-02-28T23:22:00.466Z,14.73
2023-02-28T23:24:30.865Z,16.70
2023-02-28T23:27:01.366Z,10.65
2023-02-28T23:29:29.205Z,10.80
2023-02-28T23:31:56.372Z,8.77
2023-02-28T23:34:30.575Z,11.77
2023-02-28T23:36:59.655Z,10.40
2023-02-28T23:39:27.932Z,14.82
2023-02-28T23:41:55.718Z,11.82
2023-02-28T23:44:24.202Z,12.95
2023-02-28T23:46:52.575Z,11.57
2023-02-28T23:49:20.970Z,11.20
2023-02-28T23:51:51.105Z,10.32
2023-02-28T23:54:18.400Z,11.13
2023-02-28T23:56:45.659Z,11.75
2023-02-28T23:59:13.128Z,10.75
